Spencer, Wisconsin
Current Conditions -  °F | °C
As of 2:54 PM on Sunday 23 Nov 2014 (Local Time) from KMFI Reporting Station
Light Rain Light Rain  
Wind Chill: 46°   Ceiling: 200
Heat Index: 48°   Visibility: 0.25mi
Dew Point: 47°   Wind: 5mph
Humidity: 96%   Direction: 160°SSE
Pressure: 29.4"   Gusts: NA
Location:  44.76°N, 90.3°W
Report Text: KMFI 232054Z AUTO 16004KT 1/4SM -RA FG VV002 09/08 A2940 RMK AO2 RAB02 SLP963 P0000 60000 T00890083 56027
Loading
Personal Weather Stations






























Interactive Weather Map New forecast layout! Learn more

10-Day Weather Forecast

Advertisements
Track Severe Weather on mobile